sensor_id;sensor_type;location;lat;lon;timestamp;temperature;humidity
44855;DHT22;30591;48.228;16.398;2023-03-25T00:01:33;12.60;99.90
44855;DHT22;30591;48.228;16.398;2023-03-25T00:04:01;12.60;99.90
44855;DHT22;30591;48.228;16.398;2023-03-25T00:06:31;12.60;99.90
44855;DHT22;30591;48.228;16.398;2023-03-25T00:09:00;12.70;99.90
44855;DHT22;30591;48.228;16.398;2023-03-25T00:11:28;12.70;99.90
44855;DHT22;30591;48.228;16.398;2023-03-25T00:13:56;12.60;99.90
44855;DHT22;30591;48.228;16.398;2023-03-25T00:16:24;12.70;99.90
44855;DHT22;30591;48.228;16.398;2023-03-25T00:18:51;12.60;99.90
44855;DHT22;30591;48.228;16.398;2023-03-25T00:21:18;12.70;99.90
44855;DHT22;30591;48.228;16.398;2023-03-25T00:23:46;12.60;99.90
44855;DHT22;30591;48.228;16.398;2023-03-25T00:26:13;12.60;99.90
44855;DHT22;30591;48.228;16.398;2023-03-25T00:28:40;12.70;99.90
44855;DHT22;30591;48.228;16.398;2023-03-25T00:31:11;12.60;99.90
44855;DHT22;30591;48.228;16.398;2023-03-25T00:33:40;12.60;99.90
44855;DHT22;30591;48.228;16.398;2023-03-25T00:36:11;12.50;99.90
44855;DHT22;30591;48.228;16.398;2023-03-25T00:38:41;12.50;99.90
44855;DHT22;30591;48.228;16.398;2023-03-25T00:41:20;12.50;99.90
44855;DHT22;30591;48.228;16.398;2023-03-25T00:43:56;12.50;99.90
44855;DHT22;30591;48.228;16.398;2023-03-25T00:46:26;12.50;99.90
44855;DHT22;30591;48.228;16.398;2023-03-25T00:48:55;12.50;99.90
44855;DHT22;30591;48.228;16.398;2023-03-25T00:51:24;12.50;99.90
44855;DHT22;30591;48.228;16.398;2023-03-25T00:53:54;12.40;99.90
44855;DHT22;30591;48.228;16.398;2023-03-25T00:56:23;12.40;99.90
44855;DHT22;30591;48.228;16.398;2023-03-25T00:58:51;12.30;99.90
44855;DHT22;30591;48.228;16.398;2023-03-25T01:01:24;12.30;99.90
44855;DHT22;30591;48.228;16.398;2023-03-25T01:03:57;12.30;99.90
44855;DHT22;30591;48.228;16.398;2023-03-25T01:06:36;12.30;99.90
44855;DHT22;30591;48.228;16.398;2023-03-25T01:09:06;12.20;99.90
44855;DHT22;30591;48.228;16.398;2023-03-25T01:11:35;12.30;99.90
44855;DHT22;30591;48.228;16.398;2023-03-25T01:14:07;12.30;99.90
44855;DHT22;30591;48.228;16.398;2023-03-25T01:16:37;12.30;99.90
44855;DHT22;30591;48.228;16.398;2023-03-25T01:19:04;12.30;99.90
44855;DHT22;30591;48.228;16.398;2023-03-25T01:21:32;12.20;99.90
44855;DHT22;30591;48.228;16.398;2023-03-25T01:24:03;12.20;99.90
44855;DHT22;30591;48.228;16.398;2023-03-25T01:26:31;12.10;99.90
44855;DHT22;30591;48.228;16.398;2023-03-25T01:28:58;12.10;99.90
44855;DHT22;30591;48.228;16.398;2023-03-25T01:31:26;12.00;99.90
44855;DHT22;30591;48.228;16.398;2023-03-25T01:33:57;12.00;99.90
44855;DHT22;30591;48.228;16.398;2023-03-25T01:36:25;11.90;99.90
44855;DHT22;30591;48.228;16.398;2023-03-25T01:38:57;11.90;99.90
44855;DHT22;30591;48.228;16.398;2023-03-25T01:41:26;11.90;99.90
44855;DHT22;30591;48.228;16.398;2023-03-25T01:46:57;11.90;99.90
44855;DHT22;30591;48.228;16.398;2023-03-25T01:49:35;11.90;99.90
44855;DHT22;30591;48.228;16.398;2023-03-25T01:52:15;11.90;99.90
44855;DHT22;30591;48.228;16.398;2023-03-25T01:54:44;11.80;99.90
44855;DHT22;30591;48.228;16.398;2023-03-25T01:57:15;11.80;99.90
44855;DHT22;30591;48.228;16.398;2023-03-25T01:59:46;11.70;99.90
44855;DHT22;30591;48.228;16.398;2023-03-25T02:02:15;11.70;99.90
44855;DHT22;30591;48.228;16.398;2023-03-25T02:04:54;11.70;99.90
44855;DHT22;30591;48.228;16.398;2023-03-25T02:07:32;11.60;99.90
44855;DHT22;30591;48.228;16.398;2023-03-25T02:10:04;11.60;99.90
44855;DHT22;30591;48.228;16.398;2023-03-25T02:12:33;11.60;99.90
44855;DHT22;30591;48.228;16.398;2023-03-25T02:15:02;11.70;99.90
44855;DHT22;30591;48.228;16.398;2023-03-25T02:17:57;11.70;99.90
44855;DHT22;30591;48.228;16.398;2023-03-25T02:28:55;11.70;99.90
44855;DHT22;30591;48.228;16.398;2023-03-25T02:31:42;11.70;99.90
44855;DHT22;30591;48.228;16.398;2023-03-25T02:42:40;11.60;99.90
44855;DHT22;30591;48.228;16.398;2023-03-25T02:47:52;11.60;99.90
44855;DHT22;30591;48.228;16.398;2023-03-25T02:50:34;11.60;99.90
44855;DHT22;30591;48.228;16.398;2023-03-25T02:53:07;11.60;99.90
44855;DHT22;30591;48.228;16.398;2023-03-25T02:55:39;11.60;99.90
44855;DHT22;30591;48.228;16.398;2023-03-25T02:58:09;11.70;99.90
44855;DHT22;30591;48.228;16.398;2023-03-25T03:00:38;11.60;99.90
44855;DHT22;30591;48.228;16.398;2023-03-25T03:03:07;11.70;99.90
44855;DHT22;30591;48.228;16.398;2023-03-25T03:05:38;11.70;99.90
44855;DHT22;30591;48.228;16.398;2023-03-25T03:08:27;11.80;99.90
44855;DHT22;30591;48.228;16.398;2023-03-25T03:30:49;11.40;99.90
44855;DHT22;30591;48.228;16.398;2023-03-25T03:33:31;11.40;99.90
44855;DHT22;30591;48.228;16.398;2023-03-25T03:36:07;11.30;99.90
44855;DHT22;30591;48.228;16.398;2023-03-25T03:38:48;11.30;99.90
44855;DHT22;30591;48.228;16.398;2023-03-25T03:41:20;11.40;99.90
44855;DHT22;30591;48.228;16.398;2023-03-25T03:44:13;11.40;99.90
44855;DHT22;30591;48.228;16.398;2023-03-25T03:46:49;11.40;99.90
44855;DHT22;30591;48.228;16.398;2023-03-25T03:49:23;11.50;99.90
44855;DHT22;30591;48.228;16.398;2023-03-25T03:52:02;11.50;99.90
44855;DHT22;30591;48.228;16.398;2023-03-25T03:54:53;11.50;99.90
44855;DHT22;30591;48.228;16.398;2023-03-25T03:57:33;11.50;99.90
44855;DHT22;30591;48.228;16.398;2023-03-25T04:02:51;11.40;99.90
44855;DHT22;30591;48.228;16.398;2023-03-25T04:05:26;11.30;99.90
44855;DHT22;30591;48.228;16.398;2023-03-25T04:07:58;11.40;99.90
44855;DHT22;30591;48.228;16.398;2023-03-25T04:10:38;11.30;99.90
44855;DHT22;30591;48.228;16.398;2023-03-25T04:13:13;11.40;99.90
44855;DHT22;30591;48.228;16.398;2023-03-25T04:15:42;11.40;99.90
44855;DHT22;30591;48.228;16.398;2023-03-25T04:18:10;11.30;99.90
44855;DHT22;30591;48.228;16.398;2023-03-25T04:20:38;11.30;99.90
44855;DHT22;30591;48.228;16.398;2023-03-25T04:23:11;11.30;99.90
44855;DHT22;30591;48.228;16.398;2023-03-25T04:25:43;11.20;99.90
44855;DHT22;30591;48.228;16.398;2023-03-25T04:28:14;11.20;99.90
44855;DHT22;30591;48.228;16.398;2023-03-25T04:30:44;11.20;99.90
44855;DHT22;30591;48.228;16.398;2023-03-25T04:33:12;11.20;99.90
44855;DHT22;30591;48.228;16.398;2023-03-25T04:35:40;11.20;99.90
44855;DHT22;30591;48.228;16.398;2023-03-25T04:38:07;11.20;99.90
44855;DHT22;30591;48.228;16.398;2023-03-25T04:40:34;11.30;99.90
44855;DHT22;30591;48.228;16.398;2023-03-25T04:43:02;11.20;99.90
44855;DHT22;30591;48.228;16.398;2023-03-25T04:45:29;11.20;99.90
44855;DHT22;30591;48.228;16.398;2023-03-25T04:47:56;11.20;99.90
44855;DHT22;30591;48.228;16.398;2023-03-25T04:50:27;11.20;99.90
44855;DHT22;30591;48.228;16.398;2023-03-25T04:52:55;11.10;99.90
44855;DHT22;30591;48.228;16.398;2023-03-25T04:55:28;11.10;99.90
44855;DHT22;30591;48.228;16.398;2023-03-25T04:57:56;11.10;99.90
44855;DHT22;30591;48.228;16.398;2023-03-25T05:00:24;11.10;99.90
44855;DHT22;30591;48.228;16.398;2023-03-25T05:02:53;11.10;99.90
44855;DHT22;30591;48.228;16.398;2023-03-25T05:05:23;11.10;99.90
44855;DHT22;30591;48.228;16.398;2023-03-25T05:07:53;11.00;99.90
44855;DHT22;30591;48.228;16.398;2023-03-25T05:10:23;11.00;99.90
44855;DHT22;30591;48.228;16.398;2023-03-25T05:12:58;11.00;99.90
44855;DHT22;30591;48.228;16.398;2023-03-25T05:15:26;10.90;99.90
44855;DHT22;30591;48.228;16.398;2023-03-25T05:17:54;10.90;99.90
44855;DHT22;30591;48.228;16.398;2023-03-25T05:20:22;10.90;99.90
44855;DHT22;30591;48.228;16.398;2023-03-25T05:22:49;11.00;99.90
44855;DHT22;30591;48.228;16.398;2023-03-25T05:25:19;11.00;99.90
44855;DHT22;30591;48.228;16.398;2023-03-25T05:27:48;11.00;99.90
44855;DHT22;30591;48.228;16.398;2023-03-25T05:30:15;11.00;99.90
44855;DHT22;30591;48.228;16.398;2023-03-25T05:32:43;11.10;99.90
44855;DHT22;30591;48.228;16.398;2023-03-25T05:35:11;11.00;99.90
44855;DHT22;30591;48.228;16.398;2023-03-25T05:37:39;11.00;99.90
44855;DHT22;30591;48.228;16.398;2023-03-25T05:40:07;10.90;99.90
44855;DHT22;30591;48.228;16.398;2023-03-25T05:42:41;11.00;99.90
44855;DHT22;30591;48.228;16.398;2023-03-25T05:45:15;11.10;99.90
44855;DHT22;30591;48.228;16.398;2023-03-25T05:47:43;11.10;99.90
44855;DHT22;30591;48.228;16.398;2023-03-25T05:50:10;11.10;99.90
44855;DHT22;30591;48.228;16.398;2023-03-25T05:52:38;11.10;99.90
44855;DHT22;30591;48.228;16.398;2023-03-25T05:55:18;11.10;99.90
44855;DHT22;30591;48.228;16.398;2023-03-25T05:57:48;11.10;99.90
44855;DHT22;30591;48.228;16.398;2023-03-25T06:00:16;11.20;99.90
44855;DHT22;30591;48.228;16.398;2023-03-25T06:02:46;11.30;99.90
44855;DHT22;30591;48.228;16.398;2023-03-25T06:05:15;11.40;99.90
44855;DHT22;30591;48.228;16.398;2023-03-25T06:07:44;11.40;99.90
44855;DHT22;30591;48.228;16.398;2023-03-25T06:10:14;11.30;99.90
44855;DHT22;30591;48.228;16.398;2023-03-25T06:12:46;11.40;99.90
44855;DHT22;30591;48.228;16.398;2023-03-25T06:15:15;11.40;99.90
44855;DHT22;30591;48.228;16.398;2023-03-25T06:17:56;11.50;99.90
44855;DHT22;30591;48.228;16.398;2023-03-25T06:20:23;11.50;99.90
44855;DHT22;30591;48.228;16.398;2023-03-25T06:22:51;11.60;99.90
44855;DHT22;30591;48.228;16.398;2023-03-25T06:25:19;11.50;99.90
44855;DHT22;30591;48.228;16.398;2023-03-25T06:27:48;11.50;99.90
44855;DHT22;30591;48.228;16.398;2023-03-25T06:30:18;11.50;99.90
44855;DHT22;30591;48.228;16.398;2023-03-25T06:32:46;11.50;99.90
44855;DHT22;30591;48.228;16.398;2023-03-25T06:35:18;11.50;99.90
44855;DHT22;30591;48.228;16.398;2023-03-25T06:37:47;11.60;99.90
44855;DHT22;30591;48.228;16.398;2023-03-25T06:40:43;11.60;99.90
44855;DHT22;30591;48.228;16.398;2023-03-25T06:43:10;11.70;99.90
44855;DHT22;30591;48.228;16.398;2023-03-25T06:46:10;11.70;99.90
44855;DHT22;30591;48.228;16.398;2023-03-25T06:48:58;11.70;99.90
44855;DHT22;30591;48.228;16.398;2023-03-25T06:51:25;11.80;99.90
44855;DHT22;30591;48.228;16.398;2023-03-25T06:53:53;11.80;99.90
44855;DHT22;30591;48.228;16.398;2023-03-25T06:56:20;11.80;99.90
44855;DHT22;30591;48.228;16.398;2023-03-25T06:58:47;11.80;99.90
44855;DHT22;30591;48.228;16.398;2023-03-25T07:01:15;11.80;99.90
44855;DHT22;30591;48.228;16.398;2023-03-25T07:03:43;11.90;99.90
44855;DHT22;30591;48.228;16.398;2023-03-25T07:06:15;11.90;99.90
44855;DHT22;30591;48.228;16.398;2023-03-25T07:08:43;12.00;99.90
44855;DHT22;30591;48.228;16.398;2023-03-25T07:11:12;12.00;99.90
44855;DHT22;30591;48.228;16.398;2023-03-25T07:13:40;12.00;99.90
44855;DHT22;30591;48.228;16.398;2023-03-25T07:16:09;12.00;99.90
44855;DHT22;30591;48.228;16.398;2023-03-25T07:18:40;12.00;99.90
44855;DHT22;30591;48.228;16.398;2023-03-25T07:21:08;11.90;99.90
44855;DHT22;30591;48.228;16.398;2023-03-25T07:23:35;11.90;99.90
44855;DHT22;30591;48.228;16.398;2023-03-25T07:26:02;12.00;99.90
44855;DHT22;30591;48.228;16.398;2023-03-25T07:28:30;12.00;99.90
44855;DHT22;30591;48.228;16.398;2023-03-25T07:30:57;12.00;99.90
44855;DHT22;30591;48.228;16.398;2023-03-25T07:33:24;12.10;99.90
44855;DHT22;30591;48.228;16.398;2023-03-25T07:35:51;12.10;99.90
44855;DHT22;30591;48.228;16.398;2023-03-25T07:38:19;12.10;99.90
44855;DHT22;30591;48.228;16.398;2023-03-25T07:40:47;12.20;99.90
44855;DHT22;30591;48.228;16.398;2023-03-25T07:43:16;12.20;99.90
44855;DHT22;30591;48.228;16.398;2023-03-25T07:45:55;12.30;99.90
44855;DHT22;30591;48.228;16.398;2023-03-25T07:53:54;13.50;99.90
44855;DHT22;30591;48.228;16.398;2023-03-25T07:56:30;12.50;99.90
44855;DHT22;30591;48.228;16.398;2023-03-25T07:58:58;12.60;99.90
44855;DHT22;30591;48.228;16.398;2023-03-25T08:01:25;12.60;99.90
44855;DHT22;30591;48.228;16.398;2023-03-25T08:03:53;12.80;99.90
44855;DHT22;30591;48.228;16.398;2023-03-25T08:06:20;13.00;99.90
44855;DHT22;30591;48.228;16.398;2023-03-25T08:08:47;13.30;99.90
44855;DHT22;30591;48.228;16.398;2023-03-25T08:11:14;13.10;99.90
44855;DHT22;30591;48.228;16.398;2023-03-25T08:13:42;13.20;99.90
44855;DHT22;30591;48.228;16.398;2023-03-25T08:16:11;13.10;99.90
44855;DHT22;30591;48.228;16.398;2023-03-25T08:18:40;13.20;99.90
44855;DHT22;30591;48.228;16.398;2023-03-25T08:21:12;13.00;99.90
44855;DHT22;30591;48.228;16.398;2023-03-25T08:23:39;13.00;99.90
44855;DHT22;30591;48.228;16.398;2023-03-25T08:26:07;13.00;99.90
44855;DHT22;30591;48.228;16.398;2023-03-25T08:28:34;13.00;99.90
44855;DHT22;30591;48.228;16.398;2023-03-25T08:31:05;12.90;99.90
44855;DHT22;30591;48.228;16.398;2023-03-25T08:33:34;12.90;99.90
44855;DHT22;30591;48.228;16.398;2023-03-25T08:36:09;12.90;99.90
44855;DHT22;30591;48.228;16.398;2023-03-25T08:38:40;12.90;99.90
44855;DHT22;30591;48.228;16.398;2023-03-25T08:41:08;13.00;99.90
44855;DHT22;30591;48.228;16.398;2023-03-25T08:43:35;13.10;99.90
44855;DHT22;30591;48.228;16.398;2023-03-25T08:46:02;13.10;99.90
44855;DHT22;30591;48.228;16.398;2023-03-25T08:48:30;13.10;99.90
44855;DHT22;30591;48.228;16.398;2023-03-25T08:50:57;13.00;99.90
44855;DHT22;30591;48.228;16.398;2023-03-25T08:53:25;13.10;99.90
44855;DHT22;30591;48.228;16.398;2023-03-25T08:55:54;13.10;99.90
44855;DHT22;30591;48.228;16.398;2023-03-25T08:58:22;13.10;99.90
44855;DHT22;30591;48.228;16.398;2023-03-25T09:00:53;13.10;99.90
44855;DHT22;30591;48.228;16.398;2023-03-25T09:03:23;13.10;99.90
44855;DHT22;30591;48.228;16.398;2023-03-25T09:05:51;13.30;99.90
44855;DHT22;30591;48.228;16.398;2023-03-25T09:08:19;13.30;99.90
44855;DHT22;30591;48.228;16.398;2023-03-25T09:10:47;13.30;99.90
44855;DHT22;30591;48.228;16.398;2023-03-25T09:13:14;13.40;99.90
44855;DHT22;30591;48.228;16.398;2023-03-25T09:15:42;13.40;99.90
44855;DHT22;30591;48.228;16.398;2023-03-25T09:18:11;13.40;99.90
44855;DHT22;30591;48.228;16.398;2023-03-25T09:20:38;13.50;99.90
44855;DHT22;30591;48.228;16.398;2023-03-25T09:23:06;13.60;99.90
44855;DHT22;30591;48.228;16.398;2023-03-25T09:25:36;13.60;99.90
44855;DHT22;30591;48.228;16.398;2023-03-25T09:28:03;13.60;99.90
44855;DHT22;30591;48.228;16.398;2023-03-25T09:30:31;13.60;99.90
44855;DHT22;30591;48.228;16.398;2023-03-25T09:32:59;13.80;99.90
44855;DHT22;30591;48.228;16.398;2023-03-25T09:35:27;13.80;99.90
44855;DHT22;30591;48.228;16.398;2023-03-25T09:37:54;13.80;99.90
44855;DHT22;30591;48.228;16.398;2023-03-25T09:40:22;13.80;99.90
44855;DHT22;30591;48.228;16.398;2023-03-25T09:45:44;13.70;99.90
44855;DHT22;30591;48.228;16.398;2023-03-25T09:51:10;13.70;99.90
44855;DHT22;30591;48.228;16.398;2023-03-25T09:54:24;13.90;99.90
44855;DHT22;30591;48.228;16.398;2023-03-25T09:56:56;13.90;99.90
44855;DHT22;30591;48.228;16.398;2023-03-25T09:59:41;14.00;99.90
44855;DHT22;30591;48.228;16.398;2023-03-25T10:02:31;13.90;99.90
44855;DHT22;30591;48.228;16.398;2023-03-25T10:10:51;14.20;99.90
44855;DHT22;30591;48.228;16.398;2023-03-25T10:25:22;14.10;99.90
44855;DHT22;30591;48.228;16.398;2023-03-25T10:27:51;14.00;99.90
44855;DHT22;30591;48.228;16.398;2023-03-25T10:30:24;14.00;99.90
44855;DHT22;30591;48.228;16.398;2023-03-25T10:32:56;14.20;99.90
44855;DHT22;30591;48.228;16.398;2023-03-25T10:35:33;14.20;99.90
44855;DHT22;30591;48.228;16.398;2023-03-25T10:40:42;13.90;99.90
44855;DHT22;30591;48.228;16.398;2023-03-25T10:46:27;14.00;99.90
44855;DHT22;30591;48.228;16.398;2023-03-25T10:48:56;14.00;99.90
44855;DHT22;30591;48.228;16.398;2023-03-25T10:51:29;14.10;99.90
44855;DHT22;30591;48.228;16.398;2023-03-25T10:53:58;13.90;99.90
44855;DHT22;30591;48.228;16.398;2023-03-25T10:56:29;14.10;99.90
44855;DHT22;30591;48.228;16.398;2023-03-25T10:59:01;14.10;99.90
44855;DHT22;30591;48.228;16.398;2023-03-25T11:01:36;14.10;99.90
44855;DHT22;30591;48.228;16.398;2023-03-25T11:04:07;14.20;99.90
44855;DHT22;30591;48.228;16.398;2023-03-25T11:06:40;14.10;99.90
44855;DHT22;30591;48.228;16.398;2023-03-25T11:09:12;14.00;99.90
44855;DHT22;30591;48.228;16.398;2023-03-25T11:11:42;14.00;99.90
44855;DHT22;30591;48.228;16.398;2023-03-25T11:14:10;14.10;99.90
44855;DHT22;30591;48.228;16.398;2023-03-25T11:16:52;14.10;99.90
44855;DHT22;30591;48.228;16.398;2023-03-25T11:19:35;14.10;99.60
44855;DHT22;30591;48.228;16.398;2023-03-25T11:22:18;14.10;99.40
44855;DHT22;30591;48.228;16.398;2023-03-25T11:24:49;14.30;99.40
44855;DHT22;30591;48.228;16.398;2023-03-25T11:27:23;14.50;99.90
44855;DHT22;30591;48.228;16.398;2023-03-25T11:29:59;14.50;99.40
44855;DHT22;30591;48.228;16.398;2023-03-25T11:32:33;14.50;99.20
44855;DHT22;30591;48.228;16.398;2023-03-25T11:35:27;14.70;99.50
44855;DHT22;30591;48.228;16.398;2023-03-25T11:37:58;14.80;98.10
44855;DHT22;30591;48.228;16.398;2023-03-25T11:40:28;14.60;98.00
44855;DHT22;30591;48.228;16.398;2023-03-25T11:42:59;15.00;98.20
44855;DHT22;30591;48.228;16.398;2023-03-25T11:45:34;15.10;97.50
44855;DHT22;30591;48.228;16.398;2023-03-25T11:48:18;15.40;98.40
44855;DHT22;30591;48.228;16.398;2023-03-25T11:50:56;15.50;97.40
44855;DHT22;30591;48.228;16.398;2023-03-25T11:53:26;15.40;97.40
44855;DHT22;30591;48.228;16.398;2023-03-25T11:56:01;15.90;96.00
44855;DHT22;30591;48.228;16.398;2023-03-25T11:58:33;16.30;96.20
44855;DHT22;30591;48.228;16.398;2023-03-25T12:03:47;16.80;95.40
44855;DHT22;30591;48.228;16.398;2023-03-25T12:06:20;17.10;97.30
44855;DHT22;30591;48.228;16.398;2023-03-25T12:08:58;16.70;95.10
44855;DHT22;30591;48.228;16.398;2023-03-25T12:11:30;16.00;96.10
44855;DHT22;30591;48.228;16.398;2023-03-25T12:22:34;15.50;94.70
44855;DHT22;30591;48.228;16.398;2023-03-25T12:33:28;15.10;94.90
44855;DHT22;30591;48.228;16.398;2023-03-25T12:41:36;16.10;94.30
44855;DHT22;30591;48.228;16.398;2023-03-25T12:44:11;16.30;95.30
44855;DHT22;30591;48.228;16.398;2023-03-25T12:55:47;17.30;91.40
44855;DHT22;30591;48.228;16.398;2023-03-25T13:04:17;16.00;92.80
44855;DHT22;30591;48.228;16.398;2023-03-25T13:12:37;15.70;93.60
44855;DHT22;30591;48.228;16.398;2023-03-25T13:18:01;15.40;93.50
44855;DHT22;30591;48.228;16.398;2023-03-25T13:20:33;15.40;93.40
44855;DHT22;30591;48.228;16.398;2023-03-25T13:23:05;15.10;92.50
44855;DHT22;30591;48.228;16.398;2023-03-25T13:25:41;15.20;93.10
44855;DHT22;30591;48.228;16.398;2023-03-25T13:28:15;15.40;92.90
44855;DHT22;30591;48.228;16.398;2023-03-25T13:30:46;15.30;94.60
44855;DHT22;30591;48.228;16.398;2023-03-25T13:33:18;14.90;92.90
44855;DHT22;30591;48.228;16.398;2023-03-25T13:38:42;15.60;92.60
44855;DHT22;30591;48.228;16.398;2023-03-25T13:41:14;16.40;92.20
44855;DHT22;30591;48.228;16.398;2023-03-25T13:49:41;14.80;91.90
44855;DHT22;30591;48.228;16.398;2023-03-25T13:52:09;14.60;91.10
44855;DHT22;30591;48.228;16.398;2023-03-25T13:54:52;14.50;90.70
44855;DHT22;30591;48.228;16.398;2023-03-25T13:57:47;14.30;91.60
44855;DHT22;30591;48.228;16.398;2023-03-25T14:00:28;14.20;91.70
44855;DHT22;30591;48.228;16.398;2023-03-25T14:11:33;12.80;97.10
44855;DHT22;30591;48.228;16.398;2023-03-25T14:14:07;13.20;99.20
44855;DHT22;30591;48.228;16.398;2023-03-25T14:16:44;16.20;99.80
44855;DHT22;30591;48.228;16.398;2023-03-25T14:19:14;19.30;94.10
44855;DHT22;30591;48.228;16.398;2023-03-25T14:21:48;21.30;92.10
44855;DHT22;30591;48.228;16.398;2023-03-25T14:24:32;22.20;87.20
44855;DHT22;30591;48.228;16.398;2023-03-25T14:27:26;23.40;85.80
44855;DHT22;30591;48.228;16.398;2023-03-25T14:30:00;23.20;77.80
44855;DHT22;30591;48.228;16.398;2023-03-25T14:32:35;23.20;82.00
44855;DHT22;30591;48.228;16.398;2023-03-25T14:54:19;14.40;90.30
44855;DHT22;30591;48.228;16.398;2023-03-25T14:57:00;14.40;90.70
44855;DHT22;30591;48.228;16.398;2023-03-25T14:59:35;14.30;91.00
44855;DHT22;30591;48.228;16.398;2023-03-25T15:02:16;14.30;91.20
44855;DHT22;30591;48.228;16.398;2023-03-25T15:05:02;14.40;90.30
44855;DHT22;30591;48.228;16.398;2023-03-25T15:07:47;14.30;90.90
44855;DHT22;30591;48.228;16.398;2023-03-25T15:10:31;14.30;91.10
44855;DHT22;30591;48.228;16.398;2023-03-25T15:13:23;14.40;89.70
44855;DHT22;30591;48.228;16.398;2023-03-25T15:16:55;14.40;90.40
44855;DHT22;30591;48.228;16.398;2023-03-25T15:21:23;14.40;90.50
44855;DHT22;30591;48.228;16.398;2023-03-25T15:26:38;14.30;90.40
44855;DHT22;30591;48.228;16.398;2023-03-25T15:43:44;14.40;92.00
44855;DHT22;30591;48.228;16.398;2023-03-25T15:52:28;13.70;91.80
44855;DHT22;30591;48.228;16.398;2023-03-25T15:55:18;13.60;92.00
44855;DHT22;30591;48.228;16.398;2023-03-25T15:57:50;13.60;92.20
44855;DHT22;30591;48.228;16.398;2023-03-25T16:00:27;13.70;92.50
44855;DHT22;30591;48.228;16.398;2023-03-25T16:05:36;13.70;91.30
44855;DHT22;30591;48.228;16.398;2023-03-25T16:08:16;13.60;92.50
44855;DHT22;30591;48.228;16.398;2023-03-25T16:10:45;13.40;92.50
44855;DHT22;30591;48.228;16.398;2023-03-25T16:13:14;13.30;93.00
44855;DHT22;30591;48.228;16.398;2023-03-25T16:15:55;13.10;94.20
44855;DHT22;30591;48.228;16.398;2023-03-25T16:18:24;13.10;94.60
44855;DHT22;30591;48.228;16.398;2023-03-25T16:20:58;13.10;94.10
44855;DHT22;30591;48.228;16.398;2023-03-25T16:23:28;13.00;95.20
44855;DHT22;30591;48.228;16.398;2023-03-25T16:25:56;12.60;95.30
44855;DHT22;30591;48.228;16.398;2023-03-25T16:28:39;12.40;96.30
44855;DHT22;30591;48.228;16.398;2023-03-25T16:31:28;12.40;95.00
44855;DHT22;30591;48.228;16.398;2023-03-25T16:34:00;12.40;96.00
44855;DHT22;30591;48.228;16.398;2023-03-25T16:36:28;12.30;96.10
44855;DHT22;30591;48.228;16.398;2023-03-25T16:38:56;12.30;96.00
44855;DHT22;30591;48.228;16.398;2023-03-25T16:41:24;12.20;97.50
44855;DHT22;30591;48.228;16.398;2023-03-25T16:43:52;12.10;97.70
44855;DHT22;30591;48.228;16.398;2023-03-25T16:46:21;12.20;97.30
44855;DHT22;30591;48.228;16.398;2023-03-25T16:48:51;11.60;99.90
44855;DHT22;30591;48.228;16.398;2023-03-25T16:51:28;11.20;99.90
44855;DHT22;30591;48.228;16.398;2023-03-25T16:53:59;11.00;99.90
44855;DHT22;30591;48.228;16.398;2023-03-25T16:56:36;10.90;99.90
44855;DHT22;30591;48.228;16.398;2023-03-25T16:59:19;10.90;99.90
44855;DHT22;30591;48.228;16.398;2023-03-25T17:01:55;10.90;99.90
44855;DHT22;30591;48.228;16.398;2023-03-25T17:04:26;10.90;99.90
44855;DHT22;30591;48.228;16.398;2023-03-25T17:07:18;10.80;99.90
44855;DHT22;30591;48.228;16.398;2023-03-25T17:09:55;10.60;99.90
44855;DHT22;30591;48.228;16.398;2023-03-25T17:12:25;10.50;99.90
44855;DHT22;30591;48.228;16.398;2023-03-25T17:14:57;10.50;99.90
44855;DHT22;30591;48.228;16.398;2023-03-25T17:17:50;10.50;99.90
44855;DHT22;30591;48.228;16.398;2023-03-25T17:20:36;10.50;99.90
44855;DHT22;30591;48.228;16.398;2023-03-25T17:25:55;10.30;99.90
44855;DHT22;30591;48.228;16.398;2023-03-25T17:28:36;10.20;99.90
44855;DHT22;30591;48.228;16.398;2023-03-25T17:31:35;10.30;99.90
44855;DHT22;30591;48.228;16.398;2023-03-25T17:34:27;10.20;99.90
44855;DHT22;30591;48.228;16.398;2023-03-25T17:37:00;10.20;99.90
44855;DHT22;30591;48.228;16.398;2023-03-25T17:39:32;10.20;99.90
44855;DHT22;30591;48.228;16.398;2023-03-25T17:42:02;10.20;99.90
44855;DHT22;30591;48.228;16.398;2023-03-25T17:44:42;10.10;99.90
44855;DHT22;30591;48.228;16.398;2023-03-25T17:47:16;10.10;99.90
44855;DHT22;30591;48.228;16.398;2023-03-25T17:49:45;10.00;99.90
44855;DHT22;30591;48.228;16.398;2023-03-25T17:52:12;10.10;99.90
44855;DHT22;30591;48.228;16.398;2023-03-25T17:54:39;10.10;99.90
44855;DHT22;30591;48.228;16.398;2023-03-25T17:57:16;10.10;99.90
44855;DHT22;30591;48.228;16.398;2023-03-25T17:59:45;10.10;99.90
44855;DHT22;30591;48.228;16.398;2023-03-25T18:02:15;10.10;99.90
44855;DHT22;30591;48.228;16.398;2023-03-25T18:04:43;10.10;99.90
44855;DHT22;30591;48.228;16.398;2023-03-25T18:07:10;10.10;99.90
44855;DHT22;30591;48.228;16.398;2023-03-25T18:09:38;10.00;99.90
44855;DHT22;30591;48.228;16.398;2023-03-25T18:12:06;9.90;99.90
44855;DHT22;30591;48.228;16.398;2023-03-25T18:14:33;9.80;99.90
44855;DHT22;30591;48.228;16.398;2023-03-25T18:17:01;9.80;99.90
44855;DHT22;30591;48.228;16.398;2023-03-25T18:19:30;9.70;99.90
44855;DHT22;30591;48.228;16.398;2023-03-25T18:21:58;9.70;99.90
44855;DHT22;30591;48.228;16.398;2023-03-25T18:24:45;9.50;99.90
44855;DHT22;30591;48.228;16.398;2023-03-25T18:27:13;9.50;99.90
44855;DHT22;30591;48.228;16.398;2023-03-25T18:29:40;9.40;99.90
44855;DHT22;30591;48.228;16.398;2023-03-25T18:32:07;9.50;99.90
44855;DHT22;30591;48.228;16.398;2023-03-25T18:34:35;9.50;99.90
44855;DHT22;30591;48.228;16.398;2023-03-25T18:37:02;9.40;99.90
44855;DHT22;30591;48.228;16.398;2023-03-25T18:39:30;9.40;99.90
44855;DHT22;30591;48.228;16.398;2023-03-25T18:41:58;9.40;99.90
44855;DHT22;30591;48.228;16.398;2023-03-25T18:44:25;9.40;99.90
44855;DHT22;30591;48.228;16.398;2023-03-25T18:46:54;9.40;99.90
44855;DHT22;30591;48.228;16.398;2023-03-25T18:49:22;9.40;99.90
44855;DHT22;30591;48.228;16.398;2023-03-25T18:51:49;9.30;99.90
44855;DHT22;30591;48.228;16.398;2023-03-25T18:54:16;9.30;99.90
44855;DHT22;30591;48.228;16.398;2023-03-25T18:56:44;9.30;99.90
44855;DHT22;30591;48.228;16.398;2023-03-25T18:59:15;9.30;99.90
44855;DHT22;30591;48.228;16.398;2023-03-25T19:01:44;9.30;99.90
44855;DHT22;30591;48.228;16.398;2023-03-25T19:04:13;9.30;99.90
44855;DHT22;30591;48.228;16.398;2023-03-25T19:06:41;9.30;99.90